AirNav   Air Wisconsin Up To $57,000 Bonus
 
 569 users online  

9AL7 Mossland Wildflife Farms Heliport
Shorter, Alabama, USA

GOING TO SHORTER?


FAA INFORMATION EFFECTIVE 05 DECEMBER 2019

Location

FAA Identifier: 9AL7
Lat/Long: 32-21-55.0000N 085-48-43.0000W
32-21.916667N 085-48.716667W
32.3652778,-85.8119444
(estimated)
Elevation: 287 ft. / 87 m (estimated)
From city: 8 miles SE of SHORTER, AL
Time zone: UTC -6 (UTC -5 during Daylight Saving Time)
Zip code: 36039

Heliport Operations

Heliport use: Private use. Permission required prior to landing
Activation date: 07/2016
Control tower: no
ARTCC: ATLANTA CENTER
FSS: ANNISTON FLIGHT SERVICE STATION
Attendance: 
Segmented circle: no

Nearby radio navigation aids

VOR radial/distance  VOR name  Freq  Var
TGEr223/10.2TUSKEGEE VOR/DME117.3002E
MGMr069/27.1MONTGOMERY VORTAC112.1003E

 
NDB name  Hdg/Dist  Freq  Var  ID
BLOOD029/35.436504WTOI - --- ..

Heliport Services

Runway Information

Helipad H1

Dimensions: 65 x 65 ft. / 20 x 20 m
Surface: turf
Latitude: 32-21.916667N
Longitude: 085-48.716667W
Elevation: 287.0 ft.
Traffic pattern: leftleft

Heliport Ownership and Management from official FAA records

Ownership: Privately-owned
Owner: RODDY MCKINNEY
MOSSLAND WILDLIFE FARMS, LLC., 2456 MOUNTAIN VISTA RD
VESTAVIA, AL 35243
Phone 205 807 4650
Manager: RODDY MCKINNEY
MOSSLAND WILDLIFE FARMS, LLC, 1191 BELL QUARTERS RD
SHORTER, AL 36075
Phone 205 807 4650

Additional Remarks

FOR CD CTC ATLANTA ARTCC AT 770-210-7692.

Instrument Procedures

There are no published instrument procedures at 9AL7.

Some nearby airports with instrument procedures:

06A - Moton Field Municipal Airport (9 nm NE)
KAUO - Auburn University Regional Airport (24 nm NE)
08A - Wetumpka Municipal Airport (28 nm W)
KMXF - Maxwell Air Force Base (28 nm W)
KMGM - Montgomery Regional Airport (Dannelly Field) (30 nm W)
 
Loc | Ops | Rwys | IFR | FBO | Links
Com | Nav | Svcs | Stats | Notes
Aerial photo
No photo
 
Airport distance calculator
Flying to Mossland Wildflife Farms Heliport? Find the distance to fly.

From to 9AL7

Sunrise and sunset
Times for 12-Dec-2019
 Local
(UTC-6)
 Zulu
(UTC)
Morning civil twilight06:0912:09
Sunrise06:3612:36
Sunset16:3822:38
Evening civil twilight17:0523:05

Current date and time
Zulu (UTC)  12-Dec-2019 12:49:22
Local (UTC-6)  12-Dec-2019 06:49:22
 
METAR
KAUO 
25nm NE 
121156Z AUTO 07010KT 10SM CLR 03/M04 A3045 RMK AO2 SLP337 T00331039 10039 20022 56001
KMXF 
28nm W 
121156Z AUTO 07007KT 10SM CLR 05/M03 A3042 RMK AO2 SLP305 T00471026 10048 20021 55002
KMGM 
30nm W 
121153Z AUTO 07010KT 10SM CLR 04/M02 A3043 RMK AO2 SLP306 60000 T00441022 10044 20022 55001
KTOI 
33nm S 
121153Z AUTO 06007KT 10SM OVC042 06/M01 A3041 RMK AO2 SLP297 T00561011 10056 20011 55001
KALX 
34nm N 
121235Z AUTO 07003KT 10SM CLR 02/M02 A3045 RMK AO2 T00241019
K1A9 
36nm W 
121235Z AUTO 06005KT 10SM CLR 04/M03 A3043 RMK AO2 T00361028
KLSF 
41nm E 
121156Z AUTO 34003KT 10SM CLR 01/M02 A3045 RMK AO2 SLP318 T00061025 10022 21014 55001
KCSG 
45nm E 
121151Z AUTO 10008KT 10SM CLR 04/M03 A3046 RMK AO2 SLP317 T00441028 10067 20039 53002
TAF
KMXF 
28nm W 
121200Z 1212/1318 03006KT 9999 SCT250 WS020/11044KT QNH3042INS BECMG 1215/1216 10020G25KT 9999 BKN040 OVC200 QNH3036INS BECMG 1219/1220 10012G18KT 8000 -SHRA BKN026 QNH3032INS BECMG 1223/1224 09006KT 9000 -RA SCT005 OVC010 QNH3025INS BECMG 1309/1310 09006KT 8000 -RA OVC002 QNH3003INS BECMG 1315/1316 09006KT 8000 -RA OVC010 QNH2994INS TX12/1218Z TN04/1212Z
KMGM 
30nm W 
121140Z 1212/1312 07009KT P6SM SKC WS020/10040KT FM121400 08011G22KT P6SM SCT120 FM121800 10011G19KT P6SM VCSH OVC035 FM122100 10008KT P6SM VCSH OVC026 PROB30 1300/1301 4SM TSRA OVC015CB FM130100 08007KT 6SM SHRA OVC019 PROB30 1307/1308 4SM TSRA OVC004CB FM130800 08007KT 4SM SHRA OVC006 PROB30 1308/1309 2SM TSRA OVC004CB
KTOI 
33nm S 
121140Z 1212/1312 07007KT P6SM BKN040 WS020/10040KT FM121400 08010G20KT P6SM BKN040 FM121700 09012G20KT P6SM VCSH BKN035 FM121900 09010KT P6SM VCSH OVC029 FM122300 08009KT 6SM SHRA OVC018 PROB30 1300/1306 4SM TSRA OVC009CB FM130700 07008KT 5SM SHRA OVC006 PROB30 1307/1312 2SM TSRA OVC002CB
NOTAMs
Click for the latest NOTAMs
NOTAMs are issued by the DoD/FAA and will open in a separate window not controlled by AirNav.

 

 
 

Would you like to see your business listed on this page?

 If your business provides an interesting product or service to pilots, flight crews, aircraft, or users of the Mossland Wildflife Farms Heliport, you should consider listing it here.  To start the listing process, click on the button below
 
Add a business
 

Other Pages about Mossland Wildflife Farms Heliport

Update a link
 
Copyright © AirNav, LLC. All rights reserved. Privacy Policy  Contact